sensor_id;sensor_type;location;lat;lon;timestamp;pressure;altitude;pressure_sealevel;temperature
18782;BMP180;9519;51.890;8.970;2023-05-07T00:00:28;99633.00;;;12.80
18782;BMP180;9519;51.890;8.970;2023-05-07T00:05:30;99633.00;;;12.80
18782;BMP180;9519;51.890;8.970;2023-05-07T00:10:33;99628.00;;;12.70
18782;BMP180;9519;51.890;8.970;2023-05-07T00:15:36;99636.00;;;12.60
18782;BMP180;9519;51.890;8.970;2023-05-07T00:20:37;99640.00;;;12.60
18782;BMP180;9519;51.890;8.970;2023-05-07T00:25:41;99638.00;;;12.60
18782;BMP180;9519;51.890;8.970;2023-05-07T00:30:43;99641.00;;;12.60
18782;BMP180;9519;51.890;8.970;2023-05-07T00:35:45;99635.00;;;12.50
18782;BMP180;9519;51.890;8.970;2023-05-07T00:40:48;99635.00;;;12.50
18782;BMP180;9519;51.890;8.970;2023-05-07T00:45:54;99643.00;;;12.50
18782;BMP180;9519;51.890;8.970;2023-05-07T00:50:56;99646.00;;;12.50
18782;BMP180;9519;51.890;8.970;2023-05-07T00:56:00;99648.00;;;12.40
18782;BMP180;9519;51.890;8.970;2023-05-07T01:01:03;99657.00;;;12.40
18782;BMP180;9519;51.890;8.970;2023-05-07T01:06:07;99648.00;;;12.40
18782;BMP180;9519;51.890;8.970;2023-05-07T01:11:12;99638.00;;;12.40
18782;BMP180;9519;51.890;8.970;2023-05-07T01:16:14;99640.00;;;12.40
18782;BMP180;9519;51.890;8.970;2023-05-07T01:21:17;99641.00;;;12.40
18782;BMP180;9519;51.890;8.970;2023-05-07T01:26:21;99638.00;;;12.30
18782;BMP180;9519;51.890;8.970;2023-05-07T01:31:24;99634.00;;;12.30
18782;BMP180;9519;51.890;8.970;2023-05-07T01:36:31;99635.00;;;12.30
18782;BMP180;9519;51.890;8.970;2023-05-07T01:41:36;99647.00;;;12.30
18782;BMP180;9519;51.890;8.970;2023-05-07T01:46:38;99642.00;;;12.20
18782;BMP180;9519;51.890;8.970;2023-05-07T01:51:40;99651.00;;;12.20
18782;BMP180;9519;51.890;8.970;2023-05-07T01:56:44;99647.00;;;12.20
18782;BMP180;9519;51.890;8.970;2023-05-07T02:01:48;99649.00;;;12.20
18782;BMP180;9519;51.890;8.970;2023-05-07T02:06:50;99655.00;;;12.20
18782;BMP180;9519;51.890;8.970;2023-05-07T02:11:54;99656.00;;;12.20
18782;BMP180;9519;51.890;8.970;2023-05-07T02:16:56;99658.00;;;12.20
18782;BMP180;9519;51.890;8.970;2023-05-07T02:21:58;99653.00;;;12.10
18782;BMP180;9519;51.890;8.970;2023-05-07T02:27:02;99657.00;;;12.10
18782;BMP180;9519;51.890;8.970;2023-05-07T02:32:04;99649.00;;;12.10
18782;BMP180;9519;51.890;8.970;2023-05-07T02:37:06;99642.00;;;12.00
18782;BMP180;9519;51.890;8.970;2023-05-07T02:42:09;99651.00;;;12.00
18782;BMP180;9519;51.890;8.970;2023-05-07T02:47:12;99648.00;;;12.00
18782;BMP180;9519;51.890;8.970;2023-05-07T02:52:16;99650.00;;;11.90
18782;BMP180;9519;51.890;8.970;2023-05-07T02:57:19;99654.00;;;11.90
18782;BMP180;9519;51.890;8.970;2023-05-07T03:02:21;99649.00;;;11.80
18782;BMP180;9519;51.890;8.970;2023-05-07T03:07:23;99655.00;;;11.80
18782;BMP180;9519;51.890;8.970;2023-05-07T03:12:26;99655.00;;;11.80
18782;BMP180;9519;51.890;8.970;2023-05-07T03:17:28;99649.00;;;11.80
18782;BMP180;9519;51.890;8.970;2023-05-07T03:22:30;99654.00;;;11.70
18782;BMP180;9519;51.890;8.970;2023-05-07T03:27:34;99651.00;;;11.70
18782;BMP180;9519;51.890;8.970;2023-05-07T03:32:36;99647.00;;;11.70
18782;BMP180;9519;51.890;8.970;2023-05-07T03:37:39;99634.00;;;11.60
18782;BMP180;9519;51.890;8.970;2023-05-07T03:42:42;99651.00;;;11.50
18782;BMP180;9519;51.890;8.970;2023-05-07T03:47:44;99633.00;;;11.50
18782;BMP180;9519;51.890;8.970;2023-05-07T03:52:46;99640.00;;;11.40
18782;BMP180;9519;51.890;8.970;2023-05-07T03:57:50;99648.00;;;11.40
18782;BMP180;9519;51.890;8.970;2023-05-07T04:02:52;99664.00;;;11.40
18782;BMP180;9519;51.890;8.970;2023-05-07T04:07:54;99651.00;;;11.30
18782;BMP180;9519;51.890;8.970;2023-05-07T04:12:57;99670.00;;;11.30
18782;BMP180;9519;51.890;8.970;2023-05-07T04:17:59;99674.00;;;11.30
18782;BMP180;9519;51.890;8.970;2023-05-07T04:23:01;99671.00;;;11.30
18782;BMP180;9519;51.890;8.970;2023-05-07T04:28:04;99674.00;;;11.30
18782;BMP180;9519;51.890;8.970;2023-05-07T04:33:07;99685.00;;;11.30
18782;BMP180;9519;51.890;8.970;2023-05-07T04:38:09;99672.00;;;11.30
18782;BMP180;9519;51.890;8.970;2023-05-07T04:43:13;99686.00;;;11.30
18782;BMP180;9519;51.890;8.970;2023-05-07T04:48:15;99690.00;;;11.30
18782;BMP180;9519;51.890;8.970;2023-05-07T04:53:23;99697.00;;;11.30
18782;BMP180;9519;51.890;8.970;2023-05-07T04:58:27;99700.00;;;11.30
18782;BMP180;9519;51.890;8.970;2023-05-07T05:03:32;99700.00;;;11.30
18782;BMP180;9519;51.890;8.970;2023-05-07T05:08:34;99696.00;;;11.30
18782;BMP180;9519;51.890;8.970;2023-05-07T05:13:37;99692.00;;;11.30
18782;BMP180;9519;51.890;8.970;2023-05-07T05:18:39;99702.00;;;11.30
18782;BMP180;9519;51.890;8.970;2023-05-07T05:23:41;99697.00;;;11.30
18782;BMP180;9519;51.890;8.970;2023-05-07T05:28:44;99697.00;;;11.30
18782;BMP180;9519;51.890;8.970;2023-05-07T05:33:47;99702.00;;;11.40
18782;BMP180;9519;51.890;8.970;2023-05-07T05:38:49;99703.00;;;11.40
18782;BMP180;9519;51.890;8.970;2023-05-07T05:43:52;99708.00;;;11.40
18782;BMP180;9519;51.890;8.970;2023-05-07T05:48:54;99695.00;;;11.50
18782;BMP180;9519;51.890;8.970;2023-05-07T05:53:56;99701.00;;;11.50
18782;BMP180;9519;51.890;8.970;2023-05-07T05:58:59;99713.00;;;11.60
18782;BMP180;9519;51.890;8.970;2023-05-07T06:04:02;99719.00;;;11.60
18782;BMP180;9519;51.890;8.970;2023-05-07T06:09:04;99713.00;;;11.70
18782;BMP180;9519;51.890;8.970;2023-05-07T06:14:07;99711.00;;;11.70
18782;BMP180;9519;51.890;8.970;2023-05-07T06:19:09;99718.00;;;11.80
18782;BMP180;9519;51.890;8.970;2023-05-07T06:24:12;99722.00;;;11.90
18782;BMP180;9519;51.890;8.970;2023-05-07T06:29:15;99724.00;;;11.90
18782;BMP180;9519;51.890;8.970;2023-05-07T06:34:17;99726.00;;;12.00
18782;BMP180;9519;51.890;8.970;2023-05-07T06:39:19;99717.00;;;12.10
18782;BMP180;9519;51.890;8.970;2023-05-07T06:44:22;99724.00;;;12.10
18782;BMP180;9519;51.890;8.970;2023-05-07T06:49:25;99717.00;;;12.10
18782;BMP180;9519;51.890;8.970;2023-05-07T06:54:27;99734.00;;;12.20
18782;BMP180;9519;51.890;8.970;2023-05-07T06:59:30;99740.00;;;12.20
18782;BMP180;9519;51.890;8.970;2023-05-07T07:04:32;99746.00;;;12.30
18782;BMP180;9519;51.890;8.970;2023-05-07T07:09:34;99752.00;;;12.40
18782;BMP180;9519;51.890;8.970;2023-05-07T07:14:37;99759.00;;;12.40
18782;BMP180;9519;51.890;8.970;2023-05-07T07:19:39;99757.00;;;12.40
18782;BMP180;9519;51.890;8.970;2023-05-07T07:24:41;99760.00;;;12.50
18782;BMP180;9519;51.890;8.970;2023-05-07T07:29:45;99765.00;;;12.50
18782;BMP180;9519;51.890;8.970;2023-05-07T07:34:49;99758.00;;;12.60
18782;BMP180;9519;51.890;8.970;2023-05-07T07:39:51;99764.00;;;12.60
18782;BMP180;9519;51.890;8.970;2023-05-07T07:44:55;99763.00;;;12.70
18782;BMP180;9519;51.890;8.970;2023-05-07T07:49:57;99761.00;;;12.80
18782;BMP180;9519;51.890;8.970;2023-05-07T07:54:59;99761.00;;;12.90
18782;BMP180;9519;51.890;8.970;2023-05-07T08:00:05;99775.00;;;13.00
18782;BMP180;9519;51.890;8.970;2023-05-07T08:05:08;99757.00;;;13.00
18782;BMP180;9519;51.890;8.970;2023-05-07T08:10:10;99763.00;;;13.10
18782;BMP180;9519;51.890;8.970;2023-05-07T08:15:14;99776.00;;;13.20
18782;BMP180;9519;51.890;8.970;2023-05-07T08:20:16;99774.00;;;13.40
18782;BMP180;9519;51.890;8.970;2023-05-07T08:25:18;99761.00;;;13.50
18782;BMP180;9519;51.890;8.970;2023-05-07T08:30:22;99768.00;;;13.50
18782;BMP180;9519;51.890;8.970;2023-05-07T08:35:24;99761.00;;;13.60
18782;BMP180;9519;51.890;8.970;2023-05-07T08:40:29;99758.00;;;13.60
18782;BMP180;9519;51.890;8.970;2023-05-07T08:45:34;99775.00;;;13.70
18782;BMP180;9519;51.890;8.970;2023-05-07T08:50:36;99779.00;;;13.80
18782;BMP180;9519;51.890;8.970;2023-05-07T08:55:38;99772.00;;;13.80
18782;BMP180;9519;51.890;8.970;2023-05-07T09:00:42;99769.00;;;13.90
18782;BMP180;9519;51.890;8.970;2023-05-07T09:05:44;99779.00;;;13.90
18782;BMP180;9519;51.890;8.970;2023-05-07T09:10:48;99758.00;;;14.00
18782;BMP180;9519;51.890;8.970;2023-05-07T09:15:51;99777.00;;;13.90
18782;BMP180;9519;51.890;8.970;2023-05-07T09:20:55;99785.00;;;13.90
18782;BMP180;9519;51.890;8.970;2023-05-07T09:26:00;99782.00;;;13.90
18782;BMP180;9519;51.890;8.970;2023-05-07T09:31:04;99779.00;;;13.90
18782;BMP180;9519;51.890;8.970;2023-05-07T09:36:08;99788.00;;;13.90
18782;BMP180;9519;51.890;8.970;2023-05-07T09:41:12;99785.00;;;14.00
18782;BMP180;9519;51.890;8.970;2023-05-07T09:46:16;99785.00;;;14.10
18782;BMP180;9519;51.890;8.970;2023-05-07T09:51:25;99780.00;;;14.20
18782;BMP180;9519;51.890;8.970;2023-05-07T09:56:30;99794.00;;;14.30
18782;BMP180;9519;51.890;8.970;2023-05-07T10:01:36;99788.00;;;14.50
18782;BMP180;9519;51.890;8.970;2023-05-07T10:06:39;99788.00;;;14.60
18782;BMP180;9519;51.890;8.970;2023-05-07T10:11:43;99784.00;;;14.60
18782;BMP180;9519;51.890;8.970;2023-05-07T10:16:48;99784.00;;;14.70
18782;BMP180;9519;51.890;8.970;2023-05-07T10:21:56;99787.00;;;14.80
18782;BMP180;9519;51.890;8.970;2023-05-07T10:27:04;99789.00;;;14.90
18782;BMP180;9519;51.890;8.970;2023-05-07T10:32:30;99789.00;;;14.90
18782;BMP180;9519;51.890;8.970;2023-05-07T10:37:35;99790.00;;;15.00
18782;BMP180;9519;51.890;8.970;2023-05-07T10:42:37;99791.00;;;15.00
18782;BMP180;9519;51.890;8.970;2023-05-07T10:48:09;99797.00;;;15.20
18782;BMP180;9519;51.890;8.970;2023-05-07T10:53:24;99785.00;;;15.30
18782;BMP180;9519;51.890;8.970;2023-05-07T10:58:29;99791.00;;;15.50
18782;BMP180;9519;51.890;8.970;2023-05-07T11:03:35;99797.00;;;15.50
18782;BMP180;9519;51.890;8.970;2023-05-07T11:08:55;99789.00;;;15.50
18782;BMP180;9519;51.890;8.970;2023-05-07T11:13:58;99786.00;;;15.50
18782;BMP180;9519;51.890;8.970;2023-05-07T11:19:02;99791.00;;;15.60
18782;BMP180;9519;51.890;8.970;2023-05-07T11:24:06;99788.00;;;15.70
18782;BMP180;9519;51.890;8.970;2023-05-07T11:29:12;99797.00;;;15.70
18782;BMP180;9519;51.890;8.970;2023-05-07T11:34:20;99788.00;;;15.80
18782;BMP180;9519;51.890;8.970;2023-05-07T11:39:27;99784.00;;;15.90
18782;BMP180;9519;51.890;8.970;2023-05-07T11:44:43;99780.00;;;16.00
18782;BMP180;9519;51.890;8.970;2023-05-07T11:49:49;99787.00;;;16.20
18782;BMP180;9519;51.890;8.970;2023-05-07T11:54:53;99781.00;;;16.30
18782;BMP180;9519;51.890;8.970;2023-05-07T11:59:55;99767.00;;;16.40
18782;BMP180;9519;51.890;8.970;2023-05-07T12:05:00;99785.00;;;16.60
18782;BMP180;9519;51.890;8.970;2023-05-07T12:10:05;99781.00;;;16.70
18782;BMP180;9519;51.890;8.970;2023-05-07T12:15:08;99780.00;;;16.70
18782;BMP180;9519;51.890;8.970;2023-05-07T12:20:12;99779.00;;;16.70
18782;BMP180;9519;51.890;8.970;2023-05-07T12:25:19;99775.00;;;16.70
18782;BMP180;9519;51.890;8.970;2023-05-07T12:30:21;99781.00;;;16.70
18782;BMP180;9519;51.890;8.970;2023-05-07T12:35:28;99778.00;;;16.70
18782;BMP180;9519;51.890;8.970;2023-05-07T12:40:38;99779.00;;;16.80
18782;BMP180;9519;51.890;8.970;2023-05-07T12:45:41;99777.00;;;16.90
18782;BMP180;9519;51.890;8.970;2023-05-07T12:50:45;99782.00;;;17.00
18782;BMP180;9519;51.890;8.970;2023-05-07T12:55:53;99788.00;;;17.10
18782;BMP180;9519;51.890;8.970;2023-05-07T13:00:58;99786.00;;;17.30
18782;BMP180;9519;51.890;8.970;2023-05-07T13:06:06;99788.00;;;17.50
18782;BMP180;9519;51.890;8.970;2023-05-07T13:11:10;99776.00;;;17.60
18782;BMP180;9519;51.890;8.970;2023-05-07T13:16:13;99782.00;;;17.60
18782;BMP180;9519;51.890;8.970;2023-05-07T13:21:16;99778.00;;;17.70
18782;BMP180;9519;51.890;8.970;2023-05-07T13:26:18;99780.00;;;17.90
18782;BMP180;9519;51.890;8.970;2023-05-07T13:31:21;99779.00;;;18.10
18782;BMP180;9519;51.890;8.970;2023-05-07T13:36:24;99778.00;;;18.40
18782;BMP180;9519;51.890;8.970;2023-05-07T13:41:27;99779.00;;;18.70
18782;BMP180;9519;51.890;8.970;2023-05-07T13:46:29;99774.00;;;18.90
18782;BMP180;9519;51.890;8.970;2023-05-07T13:51:32;99775.00;;;19.20
18782;BMP180;9519;51.890;8.970;2023-05-07T13:56:35;99764.00;;;19.30
18782;BMP180;9519;51.890;8.970;2023-05-07T14:01:37;99760.00;;;19.30
18782;BMP180;9519;51.890;8.970;2023-05-07T14:06:40;99761.00;;;19.20
18782;BMP180;9519;51.890;8.970;2023-05-07T14:11:42;99757.00;;;19.40
18782;BMP180;9519;51.890;8.970;2023-05-07T14:16:45;99758.00;;;19.40
18782;BMP180;9519;51.890;8.970;2023-05-07T14:21:48;99752.00;;;19.50
18782;BMP180;9519;51.890;8.970;2023-05-07T14:26:50;99752.00;;;19.50
18782;BMP180;9519;51.890;8.970;2023-05-07T14:31:52;99754.00;;;19.50
18782;BMP180;9519;51.890;8.970;2023-05-07T14:36:56;99752.00;;;19.40
18782;BMP180;9519;51.890;8.970;2023-05-07T14:41:59;99759.00;;;19.20
18782;BMP180;9519;51.890;8.970;2023-05-07T14:47:01;99772.00;;;19.20
18782;BMP180;9519;51.890;8.970;2023-05-07T14:52:05;99761.00;;;19.30
18782;BMP180;9519;51.890;8.970;2023-05-07T14:57:10;99766.00;;;19.20
18782;BMP180;9519;51.890;8.970;2023-05-07T15:02:13;99759.00;;;19.20
18782;BMP180;9519;51.890;8.970;2023-05-07T15:07:17;99770.00;;;19.00
18782;BMP180;9519;51.890;8.970;2023-05-07T15:12:19;99779.00;;;18.90
18782;BMP180;9519;51.890;8.970;2023-05-07T15:17:21;99776.00;;;18.70
18782;BMP180;9519;51.890;8.970;2023-05-07T15:22:25;99780.00;;;18.50
18782;BMP180;9519;51.890;8.970;2023-05-07T15:27:27;99787.00;;;18.30
18782;BMP180;9519;51.890;8.970;2023-05-07T15:32:29;99782.00;;;18.30
18782;BMP180;9519;51.890;8.970;2023-05-07T15:37:33;99780.00;;;18.20
18782;BMP180;9519;51.890;8.970;2023-05-07T15:42:35;99778.00;;;18.00
18782;BMP180;9519;51.890;8.970;2023-05-07T15:47:37;99778.00;;;18.00
18782;BMP180;9519;51.890;8.970;2023-05-07T15:52:40;99778.00;;;18.00
18782;BMP180;9519;51.890;8.970;2023-05-07T15:57:42;99784.00;;;18.00
18782;BMP180;9519;51.890;8.970;2023-05-07T16:02:44;99780.00;;;18.00
18782;BMP180;9519;51.890;8.970;2023-05-07T16:07:48;99783.00;;;18.00
18782;BMP180;9519;51.890;8.970;2023-05-07T16:12:50;99780.00;;;17.90
18782;BMP180;9519;51.890;8.970;2023-05-07T16:17:52;99789.00;;;17.80
18782;BMP180;9519;51.890;8.970;2023-05-07T16:22:58;99784.00;;;17.80
18782;BMP180;9519;51.890;8.970;2023-05-07T16:28:00;99793.00;;;17.60
18782;BMP180;9519;51.890;8.970;2023-05-07T16:33:03;99789.00;;;17.60
18782;BMP180;9519;51.890;8.970;2023-05-07T16:38:09;99797.00;;;17.50
18782;BMP180;9519;51.890;8.970;2023-05-07T16:43:11;99801.00;;;17.40
18782;BMP180;9519;51.890;8.970;2023-05-07T16:48:13;99804.00;;;17.20
18782;BMP180;9519;51.890;8.970;2023-05-07T16:53:20;99799.00;;;17.20
18782;BMP180;9519;51.890;8.970;2023-05-07T16:58:22;99791.00;;;17.10
18782;BMP180;9519;51.890;8.970;2023-05-07T17:03:26;99803.00;;;17.00
18782;BMP180;9519;51.890;8.970;2023-05-07T17:08:30;99804.00;;;16.90
18782;BMP180;9519;51.890;8.970;2023-05-07T17:13:37;99805.00;;;16.90
18782;BMP180;9519;51.890;8.970;2023-05-07T17:18:41;99804.00;;;16.80
18782;BMP180;9519;51.890;8.970;2023-05-07T17:23:44;99813.00;;;16.70
18782;BMP180;9519;51.890;8.970;2023-05-07T17:28:48;99810.00;;;16.60
18782;BMP180;9519;51.890;8.970;2023-05-07T17:33:54;99824.00;;;16.50
18782;BMP180;9519;51.890;8.970;2023-05-07T17:38:57;99834.00;;;16.40
18782;BMP180;9519;51.890;8.970;2023-05-07T17:44:09;99845.00;;;16.30
18782;BMP180;9519;51.890;8.970;2023-05-07T17:49:11;99839.00;;;16.30
18782;BMP180;9519;51.890;8.970;2023-05-07T17:54:18;99855.00;;;16.10
18782;BMP180;9519;51.890;8.970;2023-05-07T17:59:26;99843.00;;;16.00
18782;BMP180;9519;51.890;8.970;2023-05-07T18:04:29;99863.00;;;15.90
18782;BMP180;9519;51.890;8.970;2023-05-07T18:09:33;99867.00;;;15.70
18782;BMP180;9519;51.890;8.970;2023-05-07T18:14:37;99871.00;;;15.50
18782;BMP180;9519;51.890;8.970;2023-05-07T18:19:42;99884.00;;;15.40
18782;BMP180;9519;51.890;8.970;2023-05-07T18:24:46;99897.00;;;15.20
18782;BMP180;9519;51.890;8.970;2023-05-07T18:29:48;99898.00;;;15.10
18782;BMP180;9519;51.890;8.970;2023-05-07T18:34:50;99902.00;;;14.90
18782;BMP180;9519;51.890;8.970;2023-05-07T18:39:55;99904.00;;;14.80
18782;BMP180;9519;51.890;8.970;2023-05-07T18:44:57;99917.00;;;14.70
18782;BMP180;9519;51.890;8.970;2023-05-07T18:49:59;99921.00;;;14.60
18782;BMP180;9519;51.890;8.970;2023-05-07T18:55:05;99929.00;;;14.50
18782;BMP180;9519;51.890;8.970;2023-05-07T19:00:09;99927.00;;;14.40
18782;BMP180;9519;51.890;8.970;2023-05-07T19:05:11;99934.00;;;14.20
18782;BMP180;9519;51.890;8.970;2023-05-07T19:10:15;99926.00;;;14.10
18782;BMP180;9519;51.890;8.970;2023-05-07T19:15:17;99928.00;;;13.90
18782;BMP180;9519;51.890;8.970;2023-05-07T19:20:19;99943.00;;;13.80
18782;BMP180;9519;51.890;8.970;2023-05-07T19:25:23;99955.00;;;13.70
18782;BMP180;9519;51.890;8.970;2023-05-07T19:30:25;99955.00;;;13.50
18782;BMP180;9519;51.890;8.970;2023-05-07T19:35:27;99962.00;;;13.40
18782;BMP180;9519;51.890;8.970;2023-05-07T19:40:30;99968.00;;;13.20
18782;BMP180;9519;51.890;8.970;2023-05-07T19:45:33;99972.00;;;13.10
18782;BMP180;9519;51.890;8.970;2023-05-07T19:50:37;99973.00;;;13.00
18782;BMP180;9519;51.890;8.970;2023-05-07T19:55:40;99834.00;;;12.90
18782;BMP180;9519;51.890;8.970;2023-05-07T20:00:42;100001.00;;;12.70
18782;BMP180;9519;51.890;8.970;2023-05-07T20:05:45;100001.00;;;12.60
18782;BMP180;9519;51.890;8.970;2023-05-07T20:10:50;99987.00;;;12.50
18782;BMP180;9519;51.890;8.970;2023-05-07T20:15:56;100005.00;;;12.30
18782;BMP180;9519;51.890;8.970;2023-05-07T20:20:58;100003.00;;;12.20
18782;BMP180;9519;51.890;8.970;2023-05-07T20:26:02;100017.00;;;12.10
18782;BMP180;9519;51.890;8.970;2023-05-07T20:31:04;100026.00;;;12.00
18782;BMP180;9519;51.890;8.970;2023-05-07T20:36:07;100020.00;;;12.00
18782;BMP180;9519;51.890;8.970;2023-05-07T20:41:11;100023.00;;;11.90
18782;BMP180;9519;51.890;8.970;2023-05-07T20:46:14;100030.00;;;11.80
18782;BMP180;9519;51.890;8.970;2023-05-07T20:51:16;100039.00;;;11.70
18782;BMP180;9519;51.890;8.970;2023-05-07T20:56:19;100057.00;;;11.60
18782;BMP180;9519;51.890;8.970;2023-05-07T21:01:22;100052.00;;;11.60
18782;BMP180;9519;51.890;8.970;2023-05-07T21:06:24;100047.00;;;11.50
18782;BMP180;9519;51.890;8.970;2023-05-07T21:11:27;100052.00;;;11.40
18782;BMP180;9519;51.890;8.970;2023-05-07T21:16:29;100049.00;;;11.30
18782;BMP180;9519;51.890;8.970;2023-05-07T21:21:31;100059.00;;;11.30
18782;BMP180;9519;51.890;8.970;2023-05-07T21:26:35;100057.00;;;11.20
18782;BMP180;9519;51.890;8.970;2023-05-07T21:31:37;100055.00;;;11.10
18782;BMP180;9519;51.890;8.970;2023-05-07T21:36:39;100050.00;;;11.10
18782;BMP180;9519;51.890;8.970;2023-05-07T21:41:42;100055.00;;;11.00
18782;BMP180;9519;51.890;8.970;2023-05-07T21:46:44;100061.00;;;10.90
18782;BMP180;9519;51.890;8.970;2023-05-07T21:51:46;100057.00;;;10.90
18782;BMP180;9519;51.890;8.970;2023-05-07T21:56:49;100058.00;;;10.80
18782;BMP180;9519;51.890;8.970;2023-05-07T22:01:51;100049.00;;;10.80
18782;BMP180;9519;51.890;8.970;2023-05-07T22:06:54;100043.00;;;10.70
18782;BMP180;9519;51.890;8.970;2023-05-07T22:11:57;100058.00;;;10.70
18782;BMP180;9519;51.890;8.970;2023-05-07T22:16:59;100054.00;;;10.60
18782;BMP180;9519;51.890;8.970;2023-05-07T22:22:01;100051.00;;;10.60
18782;BMP180;9519;51.890;8.970;2023-05-07T22:27:05;100051.00;;;10.50
18782;BMP180;9519;51.890;8.970;2023-05-07T22:32:07;100061.00;;;10.50
18782;BMP180;9519;51.890;8.970;2023-05-07T22:37:09;100059.00;;;10.50
18782;BMP180;9519;51.890;8.970;2023-05-07T22:42:12;100056.00;;;10.40
18782;BMP180;9519;51.890;8.970;2023-05-07T22:47:14;100059.00;;;10.40
18782;BMP180;9519;51.890;8.970;2023-05-07T22:52:16;100050.00;;;10.30
18782;BMP180;9519;51.890;8.970;2023-05-07T22:57:19;100048.00;;;10.30
18782;BMP180;9519;51.890;8.970;2023-05-07T23:02:22;100058.00;;;10.30
18782;BMP180;9519;51.890;8.970;2023-05-07T23:07:26;100049.00;;;10.30
18782;BMP180;9519;51.890;8.970;2023-05-07T23:12:30;100052.00;;;10.20
18782;BMP180;9519;51.890;8.970;2023-05-07T23:17:32;100057.00;;;10.20
18782;BMP180;9519;51.890;8.970;2023-05-07T23:22:35;100066.00;;;10.20
18782;BMP180;9519;51.890;8.970;2023-05-07T23:27:38;100044.00;;;10.10
18782;BMP180;9519;51.890;8.970;2023-05-07T23:32:40;100041.00;;;10.10
18782;BMP180;9519;51.890;8.970;2023-05-07T23:37:42;100057.00;;;10.10
18782;BMP180;9519;51.890;8.970;2023-05-07T23:42:46;100046.00;;;10.00
18782;BMP180;9519;51.890;8.970;2023-05-07T23:47:48;100061.00;;;10.00
18782;BMP180;9519;51.890;8.970;2023-05-07T23:52:50;100060.00;;;10.00
18782;BMP180;9519;51.890;8.970;2023-05-07T23:57:53;100067.00;;;10.00
